Dhaka, Bangladesh
Current Conditions -  °F | °C
As of 4:50 PM on Sunday 21 Dec 2014 (Local Time) from VGHS Reporting Station
Haze Haze  
Wind Chill: 75°   Ceiling: 12000
Heat Index: 75°   Visibility: 2.5mi
Dew Point: 50°   Wind: 0mph
Humidity: 41%   Direction: NA
Pressure: 29.85"   Gusts: NA
Location:  23.7°N, 90.39°E
Report Text: VGHS 211050Z 00000KT 4000 HZ SCT015 BKN120 24/10 Q1011 NOSIG
Loading
Personal Weather Stations






























Interactive Weather Map New forecast layout! Learn more

10-Day Weather Forecast

Advertisements
Track Severe Weather on mobile